Time;durP1;ratioP1;P1;durP2;ratioP2;P2;SDS_P1;SDS_P2;PMS_P1;PMS_P2;Temp;Humidity;BMP_temperature;BMP_pressure;BME280_temperature;BME280_humidity;BME280_pressure;Samples;Min_cycle;Max_cycle;Signal;HPM_P1;HPM_P2
2023/08/13 00:02:25;;;;;;;9.87;5.87;;;17.20;99.90;;;;;;5139699;27;21000;-75
2023/08/13 00:04:52;;;;;;;10.50;5.73;;;17.20;99.90;;;;;;5132325;27;20503;-75
2023/08/13 00:07:20;;;;;;;6.33;5.57;;;17.10;99.90;;;;;;5140157;27;20473;-76
2023/08/13 00:09:47;;;;;;;11.17;6.23;;;17.10;99.90;;;;;;5130596;27;20475;-76
2023/08/13 00:12:14;;;;;;;10.30;6.10;;;17.20;99.90;;;;;;5132529;27;20797;-76
2023/08/13 00:14:42;;;;;;;14.80;6.23;;;17.20;99.90;;;;;;5126194;27;20497;-74
2023/08/13 00:17:09;;;;;;;9.77;5.90;;;17.20;99.90;;;;;;5137055;27;20469;-75
2023/08/13 00:19:36;;;;;;;8.97;6.40;;;17.20;99.90;;;;;;5134381;27;20448;-75
2023/08/13 00:22:04;;;;;;;12.10;7.20;;;17.30;99.90;;;;;;5137525;27;20477;-75
2023/08/13 00:24:31;;;;;;;8.70;6.20;;;17.30;99.90;;;;;;5134912;27;20485;-75
2023/08/13 00:26:58;;;;;;;17.40;7.37;;;17.40;99.90;;;;;;5122153;27;20802;-75
2023/08/13 00:29:25;;;;;;;10.53;6.97;;;17.40;99.90;;;;;;5130063;27;20442;-75
2023/08/13 00:31:55;;;;;;;7.50;5.80;;;17.50;99.90;;;;;;5122410;27;20914;-76
2023/08/13 00:34:23;;;;;;;10.90;6.70;;;17.50;99.90;;;;;;5130839;27;20474;-76
2023/08/13 00:36:50;;;;;;;12.30;6.03;;;17.50;99.90;;;;;;5115305;27;20909;-75
2023/08/13 00:39:17;;;;;;;13.37;7.07;;;17.50;99.90;;;;;;5124695;27;20454;-76
2023/08/13 00:41:44;;;;;;;12.60;6.87;;;17.50;99.90;;;;;;5123587;27;20443;-76
2023/08/13 00:44:11;;;;;;;14.00;5.50;;;17.60;99.90;;;;;;5127761;27;20464;-76
2023/08/13 00:46:38;;;;;;;7.73;5.77;;;17.60;99.90;;;;;;5123278;27;20486;-75
2023/08/13 00:49:08;;;;;;;10.60;5.67;;;17.70;99.90;;;;;;5128532;27;20512;-75
2023/08/13 00:51:36;;;;;;;7.60;4.87;;;17.70;99.90;;;;;;5131480;27;21338;-75
2023/08/13 00:54:07;;;;;;;10.70;5.90;;;17.80;99.90;;;;;;5130877;27;20486;-75
2023/08/13 00:56:35;;;;;;;12.87;6.13;;;17.70;99.90;;;;;;5123922;27;20921;-75
2023/08/13 00:59:04;;;;;;;11.13;4.33;;;17.80;99.90;;;;;;5127491;27;20474;-76
2023/08/13 01:01:31;;;;;;;11.23;5.00;;;17.70;99.90;;;;;;5133314;27;20521;-75
2023/08/13 01:03:58;;;;;;;9.83;4.37;;;17.70;99.90;;;;;;5126986;27;20551;-75
2023/08/13 01:06:33;;;;;;;6.23;4.80;;;17.70;99.90;;;;;;5134042;27;20960;-74
2023/08/13 01:09:06;;;;;;;10.80;5.27;;;17.70;99.90;;;;;;5118534;27;20929;-75
2023/08/13 01:11:42;;;;;;;18.13;6.00;;;17.70;99.90;;;;;;5122710;27;20443;-74
2023/08/13 01:14:18;;;;;;;7.70;4.87;;;17.70;99.90;;;;;;5136132;27;20960;-75
2023/08/13 01:16:47;;;;;;;9.53;4.87;;;17.60;99.90;;;;;;5129880;27;20433;-75
2023/08/13 01:19:14;;;;;;;9.70;4.97;;;17.70;99.90;;;;;;5127795;27;20441;-74
2023/08/13 01:21:43;;;;;;;11.67;5.90;;;17.60;99.90;;;;;;5134663;27;20464;-75
2023/08/13 01:24:11;;;;;;;12.30;6.13;;;17.60;99.90;;;;;;5139524;27;20526;-75
2023/08/13 01:26:47;;;;;;;14.17;4.17;;;17.60;99.90;;;;;;5131360;27;20433;-75
2023/08/13 01:29:19;;;;;;;9.40;5.07;;;17.60;99.90;;;;;;5125530;27;20466;-75
2023/08/13 01:31:49;;;;;;;5.43;4.40;;;17.50;99.90;;;;;;5120989;27;20448;-75
2023/08/13 01:34:18;;;;;;;9.70;3.60;;;17.60;99.90;;;;;;5123891;27;20479;-75
2023/08/13 01:36:46;;;;;;;7.57;3.93;;;17.50;99.90;;;;;;5130258;27;20430;-75
2023/08/13 01:39:16;;;;;;;16.20;5.70;;;17.50;99.90;;;;;;5141901;27;20435;-75
2023/08/13 01:41:55;;;;;;;11.73;4.43;;;17.50;99.90;;;;;;5126966;27;20481;-75
2023/08/13 01:44:23;;;;;;;5.90;4.03;;;17.50;99.90;;;;;;5117171;28;20451;-75
2023/08/13 01:46:53;;;;;;;7.97;4.27;;;17.60;99.90;;;;;;5118898;27;20441;-75
2023/08/13 01:49:20;;;;;;;15.77;5.67;;;17.60;99.90;;;;;;5126109;27;20518;-75
2023/08/13 01:51:48;;;;;;;11.07;4.90;;;17.60;99.90;;;;;;5127157;27;20447;-75
2023/08/13 01:54:16;;;;;;;14.67;5.70;;;17.50;99.90;;;;;;5125921;27;20552;-75
2023/08/13 01:56:43;;;;;;;9.07;5.70;;;17.50;99.90;;;;;;5130287;27;20994;-76
2023/08/13 01:59:10;;;;;;;8.03;4.03;;;17.50;99.90;;;;;;5129160;27;20485;-75
2023/08/13 02:01:37;;;;;;;18.80;5.70;;;17.50;99.90;;;;;;5126831;27;20529;-73
2023/08/13 02:04:05;;;;;;;13.30;4.93;;;17.50;99.90;;;;;;5127889;27;20488;-75
2023/08/13 02:06:33;;;;;;;15.23;5.00;;;17.40;99.90;;;;;;5125119;27;20557;-75
2023/08/13 02:09:00;;;;;;;9.80;4.60;;;17.50;99.90;;;;;;5143684;27;20481;-74
2023/08/13 02:11:29;;;;;;;11.50;5.37;;;17.50;99.90;;;;;;5147985;27;20525;-75
2023/08/13 02:13:56;;;;;;;6.80;4.73;;;17.50;99.90;;;;;;5141481;27;20496;-74
2023/08/13 02:16:23;;;;;;;12.60;4.83;;;17.50;99.90;;;;;;5151100;27;20438;-73
2023/08/13 02:18:50;;;;;;;6.93;4.00;;;17.50;99.90;;;;;;5143569;27;20442;-74
2023/08/13 02:21:19;;;;;;;13.63;4.00;;;17.60;99.90;;;;;;5136564;27;20529;-74
2023/08/13 02:23:46;;;;;;;10.27;5.07;;;17.70;99.90;;;;;;5136032;27;20470;-74
2023/08/13 02:26:14;;;;;;;10.57;4.60;;;17.70;99.90;;;;;;5124996;27;20484;-74
2023/08/13 02:28:45;;;;;;;9.07;4.13;;;17.70;99.90;;;;;;5135313;27;20449;-74
2023/08/13 02:31:12;;;;;;;7.50;4.40;;;17.70;99.90;;;;;;5132132;27;20582;-74
2023/08/13 02:33:41;;;;;;;11.50;3.50;;;17.70;99.90;;;;;;5131435;27;20461;-75
2023/08/13 02:36:08;;;;;;;8.40;5.20;;;17.70;99.90;;;;;;5141170;27;20493;-75
2023/08/13 02:38:36;;;;;;;11.73;6.03;;;17.70;99.90;;;;;;5130162;27;20541;-74
2023/08/13 02:41:03;;;;;;;17.57;4.33;;;17.70;99.90;;;;;;5127343;27;20477;-75
2023/08/13 02:43:34;;;;;;;9.27;4.30;;;17.80;99.90;;;;;;5127461;27;20465;-74
2023/08/13 02:46:02;;;;;;;7.80;3.90;;;17.70;99.90;;;;;;5133529;27;20574;-75
2023/08/13 02:48:29;;;;;;;9.70;5.20;;;17.80;99.90;;;;;;5132342;27;20512;-75
2023/08/13 02:50:56;;;;;;;9.50;4.00;;;17.80;99.90;;;;;;5134038;27;20521;-74
2023/08/13 02:53:23;;;;;;;6.87;3.60;;;17.80;99.90;;;;;;5134541;27;20557;-74
2023/08/13 02:55:50;;;;;;;12.03;3.73;;;17.90;99.90;;;;;;5128761;27;20514;-74
2023/08/13 02:58:17;;;;;;;8.37;4.10;;;17.90;99.90;;;;;;5132549;27;20453;-75
2023/08/13 03:00:43;;;;;;;7.00;4.70;;;18.00;99.90;;;;;;5129037;27;20438;-75
2023/08/13 03:03:12;;;;;;;8.70;4.70;;;17.90;99.90;;;;;;5130222;27;20505;-74
2023/08/13 03:05:39;;;;;;;12.80;6.23;;;17.80;99.90;;;;;;5131610;27;20488;-75
2023/08/13 03:08:06;;;;;;;8.77;5.93;;;17.60;99.90;;;;;;5133769;27;20442;-74
2023/08/13 03:10:33;;;;;;;15.33;6.17;;;17.60;99.90;;;;;;5127082;27;20999;-74
2023/08/13 03:13:00;;;;;;;8.80;5.03;;;17.60;99.90;;;;;;5126856;27;20542;-75
2023/08/13 03:15:27;;;;;;;10.17;5.10;;;17.60;99.90;;;;;;5133946;27;20480;-75
2023/08/13 03:17:54;;;;;;;12.73;6.60;;;17.70;99.90;;;;;;5134238;27;20438;-74
2023/08/13 03:20:22;;;;;;;11.63;5.93;;;17.70;99.90;;;;;;5121808;27;20469;-75
2023/08/13 03:22:49;;;;;;;14.80;6.03;;;17.70;99.90;;;;;;5134001;27;20474;-74
2023/08/13 03:25:16;;;;;;;12.00;5.30;;;17.70;99.90;;;;;;5134873;27;20509;-74
2023/08/13 03:27:43;;;;;;;8.20;4.80;;;17.80;99.90;;;;;;5132010;27;20442;-74
2023/08/13 03:30:10;;;;;;;10.50;5.73;;;17.90;99.90;;;;;;5136905;27;20891;-74
2023/08/13 03:32:37;;;;;;;10.17;4.80;;;17.80;99.90;;;;;;5134605;27;20492;-74
2023/08/13 03:35:05;;;;;;;11.70;4.73;;;17.80;99.90;;;;;;5130877;27;20537;-74
2023/08/13 03:37:36;;;;;;;12.30;6.27;;;17.70;99.90;;;;;;5128134;27;20438;-73
2023/08/13 03:40:05;;;;;;;6.40;5.13;;;17.60;99.90;;;;;;5123111;27;20504;-74
2023/08/13 03:42:32;;;;;;;12.67;6.63;;;17.70;99.90;;;;;;5133425;27;20454;-75
2023/08/13 03:45:00;;;;;;;11.87;6.23;;;17.60;99.90;;;;;;5124869;27;20470;-73
2023/08/13 03:47:27;;;;;;;11.47;6.07;;;17.50;99.90;;;;;;5126300;27;20540;-74
2023/08/13 03:49:54;;;;;;;14.67;5.80;;;17.50;99.90;;;;;;5126217;27;20437;-74
2023/08/13 03:52:21;;;;;;;9.10;4.97;;;17.70;99.90;;;;;;5132991;27;20469;-73
2023/08/13 03:54:49;;;;;;;10.60;5.70;;;17.70;99.90;;;;;;5127018;27;20485;-74
2023/08/13 03:57:16;;;;;;;10.30;5.20;;;17.80;99.90;;;;;;5147410;27;20528;-74
2023/08/13 03:59:43;;;;;;;7.40;5.87;;;17.70;99.90;;;;;;5137271;27;20444;-74
2023/08/13 04:02:10;;;;;;;10.10;5.10;;;17.80;99.90;;;;;;5133245;27;20894;-75
2023/08/13 04:04:37;;;;;;;12.23;6.23;;;17.80;99.90;;;;;;5133882;27;20490;-74
2023/08/13 04:07:05;;;;;;;7.37;5.10;;;17.80;99.90;;;;;;5130601;27;20558;-74
2023/08/13 04:09:32;;;;;;;10.83;6.13;;;17.80;99.90;;;;;;5131577;27;20515;-73
2023/08/13 04:12:00;;;;;;;12.53;5.30;;;17.80;99.90;;;;;;5124991;27;20459;-75
2023/08/13 04:14:27;;;;;;;10.87;5.37;;;17.90;99.90;;;;;;5133147;27;20461;-75
2023/08/13 04:16:54;;;;;;;6.23;4.90;;;17.90;99.90;;;;;;5130540;27;20977;-74
2023/08/13 04:19:21;;;;;;;10.60;5.73;;;17.90;99.90;;;;;;5125985;27;20445;-74
2023/08/13 04:21:48;;;;;;;6.23;4.40;;;17.90;99.90;;;;;;5128682;27;20477;-75
2023/08/13 04:24:15;;;;;;;10.27;5.00;;;17.90;99.90;;;;;;5125273;27;20489;-74
2023/08/13 04:26:44;;;;;;;6.60;4.63;;;18.00;99.90;;;;;;5126234;27;20507;-74
2023/08/13 04:29:12;;;;;;;11.50;5.20;;;17.90;99.90;;;;;;5125697;27;20471;-75
2023/08/13 04:31:39;;;;;;;9.23;5.70;;;17.90;99.90;;;;;;5124961;27;20454;-75
2023/08/13 04:34:06;;;;;;;8.37;4.90;;;17.90;99.90;;;;;;5127672;27;20469;-74
2023/08/13 04:36:36;;;;;;;12.70;5.73;;;17.90;99.90;;;;;;5132805;27;20522;-74
2023/08/13 04:39:05;;;;;;;9.83;5.60;;;17.80;99.90;;;;;;5124957;27;20926;-73
2023/08/13 04:41:32;;;;;;;10.90;5.57;;;17.70;99.90;;;;;;5138225;27;20812;-73
2023/08/13 04:43:59;;;;;;;12.53;5.90;;;17.70;99.90;;;;;;5133323;27;20566;-75
2023/08/13 04:46:27;;;;;;;15.80;7.03;;;17.70;99.90;;;;;;5130300;27;20573;-74
2023/08/13 04:48:54;;;;;;;10.90;5.70;;;17.60;99.90;;;;;;5129982;27;20445;-73
2023/08/13 04:51:21;;;;;;;9.00;6.77;;;17.60;99.90;;;;;;5131287;27;20472;-74
2023/08/13 04:53:48;;;;;;;9.80;5.87;;;17.60;99.90;;;;;;5130965;27;20451;-74
2023/08/13 04:56:15;;;;;;;11.07;5.00;;;17.60;99.90;;;;;;5123328;27;20504;-73
2023/08/13 04:58:43;;;;;;;10.53;5.40;;;17.50;99.90;;;;;;5119832;27;20466;-73
2023/08/13 05:01:10;;;;;;;10.80;5.97;;;17.50;99.90;;;;;;5130886;27;20886;-73
2023/08/13 05:03:40;;;;;;;9.27;5.50;;;17.60;99.90;;;;;;5122927;27;20545;-72
2023/08/13 05:06:07;;;;;;;14.97;5.00;;;17.70;99.90;;;;;;5131596;27;20906;-72
2023/08/13 05:08:34;;;;;;;9.23;4.80;;;18.20;99.90;;;;;;5131022;27;20454;-73
2023/08/13 05:11:01;;;;;;;11.43;4.40;;;18.90;99.90;;;;;;5129790;27;20526;-73
2023/08/13 05:13:28;;;;;;;19.50;5.13;;;19.50;99.90;;;;;;5120778;27;20552;-73
2023/08/13 05:15:55;;;;;;;8.20;4.50;;;20.40;99.90;;;;;;5120331;27;20442;-73
2023/08/13 05:18:21;;;;;;;6.33;4.00;;;21.40;99.90;;;;;;5128462;27;20885;-75
2023/08/13 05:20:50;;;;;;;8.40;4.50;;;22.10;99.90;;;;;;5128561;27;20452;-74
2023/08/13 05:23:17;;;;;;;14.27;4.63;;;22.50;99.90;;;;;;5122379;27;20470;-73
2023/08/13 05:25:44;;;;;;;10.53;3.97;;;23.00;99.90;;;;;;5128810;28;20442;-74
2023/08/13 05:28:11;;;;;;;5.60;3.73;;;23.50;99.90;;;;;;5131419;27;20526;-74
2023/08/13 05:30:39;;;;;;;6.70;3.73;;;24.30;99.90;;;;;;5131691;27;20455;-74
2023/08/13 05:33:06;;;;;;;8.07;3.43;;;24.90;99.90;;;;;;5124589;27;20465;-74
2023/08/13 05:35:33;;;;;;;7.23;3.77;;;25.50;99.90;;;;;;5127730;27;20877;-74
2023/08/13 05:38:02;;;;;;;10.37;3.70;;;25.80;99.90;;;;;;5132768;27;20939;-75
2023/08/13 05:40:31;;;;;;;8.10;3.73;;;26.40;98.70;;;;;;5129676;27;20445;-74
2023/08/13 05:42:58;;;;;;;10.20;3.57;;;26.20;97.70;;;;;;5134362;27;21195;-74
2023/08/13 05:45:25;;;;;;;7.70;3.30;;;26.70;96.90;;;;;;5135743;27;20806;-74
2023/08/13 05:47:52;;;;;;;6.90;3.63;;;27.20;96.50;;;;;;5135286;27;20549;-74
2023/08/13 05:50:19;;;;;;;8.70;3.00;;;27.20;94.80;;;;;;5129932;27;20439;-74
2023/08/13 05:52:46;;;;;;;5.90;3.03;;;27.50;93.80;;;;;;5135894;27;20446;-74
2023/08/13 05:55:15;;;;;;;6.47;3.50;;;27.40;94.30;;;;;;5136322;27;20439;-74
2023/08/13 05:57:42;;;;;;;7.93;2.70;;;27.60;93.10;;;;;;5139039;27;20434;-75
2023/08/13 06:00:11;;;;;;;10.80;4.00;;;27.80;93.30;;;;;;5131879;27;20474;-74
2023/08/13 06:02:40;;;;;;;4.70;2.53;;;28.00;92.30;;;;;;5124963;27;20510;-75
2023/08/13 06:05:13;;;;;;;6.47;3.20;;;28.40;91.30;;;;;;5131860;27;20428;-74
2023/08/13 06:07:40;;;;;;;8.00;2.70;;;28.40;91.70;;;;;;5128810;27;20583;-74
2023/08/13 06:10:08;;;;;;;4.70;2.93;;;28.40;91.60;;;;;;5131518;27;20450;-74
2023/08/13 06:12:36;;;;;;;7.70;3.07;;;28.60;90.90;;;;;;5135364;27;20470;-75
2023/08/13 06:15:04;;;;;;;7.70;3.47;;;28.20;91.30;;;;;;5126921;27;20526;-74
2023/08/13 06:17:33;;;;;;;8.67;2.80;;;28.10;91.50;;;;;;5119218;27;20435;-74
2023/08/13 06:20:01;;;;;;;11.63;4.40;;;28.50;90.70;;;;;;5129808;27;20492;-74
2023/08/13 06:22:28;;;;;;;7.70;3.73;;;28.60;90.60;;;;;;5134848;27;20446;-74
2023/08/13 06:24:55;;;;;;;5.90;2.93;;;28.50;90.80;;;;;;5131062;27;20458;-75
2023/08/13 06:27:22;;;;;;;10.83;3.70;;;29.30;90.40;;;;;;5124325;27;20477;-75
2023/08/13 06:29:50;;;;;;;5.50;3.47;;;29.80;89.30;;;;;;5121708;27;20438;-75
2023/08/13 06:32:17;;;;;;;10.63;3.43;;;29.40;88.70;;;;;;5134258;27;20439;-74
2023/08/13 06:34:44;;;;;;;7.30;3.10;;;29.00;88.10;;;;;;5133581;27;20979;-77
2023/08/13 06:37:11;;;;;;;9.40;3.37;;;29.60;89.50;;;;;;5130542;27;20545;-75
2023/08/13 06:39:38;;;;;;;9.70;3.17;;;29.70;88.40;;;;;;5127153;27;20442;-73
2023/08/13 06:42:06;;;;;;;7.50;3.17;;;30.30;88.00;;;;;;5124595;27;20433;-74
2023/08/13 06:44:33;;;;;;;10.17;2.63;;;30.60;87.10;;;;;;5128489;27;20507;-73
2023/08/13 06:47:01;;;;;;;8.43;3.50;;;30.20;85.40;;;;;;5130346;27;20511;-74
2023/08/13 06:49:28;;;;;;;15.13;4.80;;;29.10;88.10;;;;;;5123105;27;20478;-74
2023/08/13 06:51:55;;;;;;;6.77;2.57;;;28.20;90.30;;;;;;5127378;27;20502;-73
2023/08/13 06:54:22;;;;;;;12.73;3.63;;;27.50;91.20;;;;;;5127808;27;20582;-73
2023/08/13 06:56:49;;;;;;;10.57;3.87;;;27.90;91.90;;;;;;5126395;27;20439;-72
2023/08/13 06:59:17;;;;;;;11.73;3.53;;;28.00;90.60;;;;;;5134929;27;20434;-76
2023/08/13 07:01:44;;;;;;;6.70;2.50;;;27.70;91.00;;;;;;5137310;27;20517;-76
2023/08/13 07:04:11;;;;;;;8.33;3.33;;;28.30;91.10;;;;;;5135576;27;20482;-76
2023/08/13 07:06:38;;;;;;;8.40;2.97;;;28.90;90.90;;;;;;5126177;27;21015;-76
2023/08/13 07:09:06;;;;;;;9.93;3.23;;;28.50;90.20;;;;;;5131535;27;20485;-76
2023/08/13 07:11:34;;;;;;;11.30;2.90;;;28.80;90.40;;;;;;5133902;27;20533;-75
2023/08/13 07:14:03;;;;;;;11.63;3.47;;;28.50;90.30;;;;;;5131640;27;20551;-75
2023/08/13 07:16:30;;;;;;;8.17;3.07;;;28.80;90.90;;;;;;5136535;27;20445;-76
2023/08/13 07:18:56;;;;;;;14.93;3.23;;;28.60;90.90;;;;;;5132905;27;20864;-76
2023/08/13 07:21:25;;;;;;;9.07;2.90;;;28.80;90.60;;;;;;5135438;27;20526;-76
2023/08/13 07:23:52;;;;;;;9.73;2.90;;;28.60;90.30;;;;;;5129640;27;20545;-77
2023/08/13 07:26:19;;;;;;;6.47;2.83;;;28.40;90.60;;;;;;5117017;27;20527;-74
2023/08/13 07:28:46;;;;;;;11.40;3.37;;;28.10;90.70;;;;;;5126048;27;20809;-76
2023/08/13 07:31:14;;;;;;;9.70;2.97;;;27.80;90.90;;;;;;5121261;27;20504;-73
2023/08/13 07:33:41;;;;;;;9.20;3.70;;;27.80;91.30;;;;;;5122857;27;20482;-76
2023/08/13 07:36:09;;;;;;;7.50;2.90;;;27.80;91.40;;;;;;5128116;27;20474;-77
2023/08/13 07:38:37;;;;;;;9.07;3.70;;;27.90;90.90;;;;;;5127112;27;20544;-76
2023/08/13 07:41:04;;;;;;;9.73;3.33;;;27.80;91.10;;;;;;5129095;27;20784;-77
2023/08/13 07:43:31;;;;;;;5.80;2.57;;;28.00;90.90;;;;;;5128732;27;20570;-76
2023/08/13 07:45:59;;;;;;;6.70;2.60;;;28.30;90.80;;;;;;5127454;27;20499;-75
2023/08/13 07:48:26;;;;;;;9.70;3.20;;;28.10;90.60;;;;;;5128790;27;20532;-75
2023/08/13 07:50:55;;;;;;;6.00;2.60;;;27.80;90.80;;;;;;5131365;27;20537;-74
2023/08/13 07:53:22;;;;;;;13.70;3.70;;;27.80;91.00;;;;;;5133381;27;20566;-75
2023/08/13 07:55:50;;;;;;;8.57;3.23;;;27.40;91.90;;;;;;5132586;27;20589;-75
2023/08/13 07:58:19;;;;;;;8.30;3.40;;;27.60;91.40;;;;;;5129614;27;20439;-74
2023/08/13 08:00:46;;;;;;;5.33;2.73;;;27.70;91.40;;;;;;5123578;27;20832;-75
2023/08/13 08:03:13;;;;;;;9.87;4.17;;;27.80;90.80;;;;;;5123844;27;20465;-75
2023/08/13 08:05:41;;;;;;;8.80;3.20;;;28.00;91.00;;;;;;5127799;27;20440;-75
2023/08/13 08:08:08;;;;;;;6.77;2.63;;;28.90;90.60;;;;;;5129007;27;20466;-74
2023/08/13 08:10:35;;;;;;;10.87;2.83;;;29.40;90.10;;;;;;5121978;27;20443;-75
2023/08/13 08:13:03;;;;;;;7.43;2.50;;;29.40;88.10;;;;;;5130393;27;20551;-76
2023/08/13 08:15:30;;;;;;;13.93;3.43;;;29.80;88.30;;;;;;5121571;27;20471;-74
2023/08/13 08:17:57;;;;;;;8.40;2.57;;;30.20;86.00;;;;;;5121490;27;20535;-74
2023/08/13 08:20:24;;;;;;;6.67;2.73;;;30.70;85.80;;;;;;5130410;27;20462;-76
2023/08/13 08:22:51;;;;;;;10.90;4.47;;;31.00;83.90;;;;;;5126953;27;20952;-75
2023/08/13 08:25:19;;;;;;;6.43;2.83;;;30.70;84.50;;;;;;5126259;27;20438;-75
2023/08/13 08:27:46;;;;;;;11.10;3.20;;;30.50;84.70;;;;;;5131420;27;20526;-75
2023/08/13 08:30:15;;;;;;;12.90;3.60;;;30.60;85.70;;;;;;5132695;27;20538;-75
2023/08/13 08:32:42;;;;;;;6.57;2.83;;;30.70;84.40;;;;;;5125341;27;20474;-76
2023/08/13 08:35:10;;;;;;;7.73;3.20;;;30.80;84.80;;;;;;5124129;27;20438;-75
2023/08/13 08:37:37;;;;;;;8.63;3.23;;;30.00;84.60;;;;;;5127263;27;20499;-75
2023/08/13 08:40:05;;;;;;;8.83;3.40;;;30.10;85.30;;;;;;5129938;27;20444;-76
2023/08/13 08:42:33;;;;;;;6.07;2.93;;;29.90;85.60;;;;;;5124172;27;20525;-75
2023/08/13 08:45:00;;;;;;;8.97;3.60;;;30.30;85.80;;;;;;5126909;27;20454;-76
2023/08/13 08:47:29;;;;;;;7.70;2.93;;;30.50;85.40;;;;;;5119460;27;20509;-75
2023/08/13 08:49:56;;;;;;;7.73;2.83;;;30.60;84.80;;;;;;5115527;27;20475;-74
2023/08/13 08:52:23;;;;;;;7.57;3.13;;;30.30;84.60;;;;;;5129227;27;20449;-74
2023/08/13 08:54:51;;;;;;;6.43;3.00;;;30.90;85.60;;;;;;5132010;27;20462;-76
2023/08/13 08:57:18;;;;;;;7.53;2.27;;;31.00;83.30;;;;;;5121804;27;20492;-74
2023/08/13 08:59:45;;;;;;;8.00;2.87;;;31.60;83.90;;;;;;5128622;27;20478;-75
2023/08/13 09:02:13;;;;;;;5.40;2.50;;;32.20;81.10;;;;;;5121453;27;20443;-76
2023/08/13 09:04:47;;;;;;;6.33;2.30;;;32.50;80.20;;;;;;5123735;27;20594;-75
2023/08/13 09:07:14;;;;;;;13.27;4.00;;;32.70;79.60;;;;;;5124549;27;20477;-75
2023/08/13 09:09:43;;;;;;;8.17;3.03;;;31.00;80.40;;;;;;5127733;27;20440;-76
2023/08/13 09:12:10;;;;;;;3.33;1.90;;;30.30;82.90;;;;;;5131550;27;20451;-74
2023/08/13 09:14:37;;;;;;;6.93;2.03;;;28.90;86.00;;;;;;5122064;27;20517;-74
2023/08/13 09:17:04;;;;;;;6.00;2.57;;;28.30;87.90;;;;;;5121303;27;20455;-74
2023/08/13 09:19:33;;;;;;;4.67;1.77;;;28.10;89.40;;;;;;5119726;27;20458;-72
2023/08/13 09:22:07;;;;;;;9.00;2.77;;;28.20;87.90;;;;;;5129388;27;20434;-73
2023/08/13 09:24:36;;;;;;;5.10;1.87;;;28.80;89.10;;;;;;5125421;27;20473;-72
2023/08/13 09:27:06;;;;;;;4.27;1.63;;;29.80;86.90;;;;;;5135113;27;20525;-73
2023/08/13 09:29:33;;;;;;;4.57;2.53;;;30.40;84.90;;;;;;5137920;27;20518;-73
2023/08/13 09:32:01;;;;;;;4.10;1.90;;;30.20;83.30;;;;;;5134192;27;20945;-74
2023/08/13 09:34:33;;;;;;;8.30;2.87;;;29.40;85.30;;;;;;5137703;27;20459;-75
2023/08/13 09:37:00;;;;;;;6.90;1.70;;;29.40;86.70;;;;;;5122779;27;20455;-75
2023/08/13 09:39:31;;;;;;;5.57;1.97;;;29.80;86.00;;;;;;5129090;27;20526;-73
2023/08/13 09:42:00;;;;;;;3.67;1.67;;;30.00;85.20;;;;;;5139741;27;20450;-73
2023/08/13 09:44:29;;;;;;;3.27;1.90;;;30.80;84.40;;;;;;5131487;27;20471;-73
2023/08/13 09:47:00;;;;;;;6.50;2.07;;;30.60;84.20;;;;;;5135782;27;20453;-75
2023/08/13 09:49:30;;;;;;;8.03;2.10;;;30.50;83.90;;;;;;5149937;27;20477;-75
2023/08/13 09:52:00;;;;;;;3.90;2.27;;;30.80;84.30;;;;;;5129759;27;20449;-74
2023/08/13 09:54:33;;;;;;;6.20;1.87;;;31.20;82.60;;;;;;5132383;27;20931;-76
2023/08/13 09:57:03;;;;;;;7.80;2.40;;;31.50;82.10;;;;;;5126210;27;20546;-74
2023/08/13 09:59:33;;;;;;;3.33;1.70;;;31.20;81.50;;;;;;5130238;27;20466;-74
2023/08/13 10:02:01;;;;;;;4.37;2.03;;;30.30;83.00;;;;;;5123451;27;20441;-74
2023/08/13 10:04:29;;;;;;;5.80;1.67;;;29.90;83.20;;;;;;5133040;27;20863;-74
2023/08/13 10:06:57;;;;;;;3.10;1.50;;;29.40;84.80;;;;;;5127842;27;20863;-73
2023/08/13 10:09:26;;;;;;;2.10;1.47;;;29.50;84.30;;;;;;5121683;27;20440;-75
2023/08/13 10:11:55;;;;;;;3.67;1.87;;;29.00;85.40;;;;;;5119059;27;20435;-75
2023/08/13 10:14:22;;;;;;;2.87;1.37;;;28.90;85.60;;;;;;5119205;27;20879;-74
2023/08/13 10:16:49;;;;;;;2.47;1.60;;;28.90;85.90;;;;;;5132958;27;20461;-74
2023/08/13 10:19:17;;;;;;;7.50;2.13;;;28.40;86.50;;;;;;5133427;27;20469;-74
2023/08/13 10:21:54;;;;;;;5.13;2.30;;;28.40;87.50;;;;;;5119123;27;20845;-74
2023/08/13 10:24:22;;;;;;;6.53;1.90;;;28.70;87.00;;;;;;5126586;27;20451;-73
2023/08/13 10:26:49;;;;;;;3.43;2.00;;;29.00;87.10;;;;;;5127618;27;20432;-73
2023/08/13 10:29:19;;;;;;;2.83;1.80;;;29.40;85.40;;;;;;5115856;27;20474;-74
2023/08/13 10:31:49;;;;;;;2.33;1.50;;;29.30;84.20;;;;;;5123902;27;20537;-74
2023/08/13 10:34:18;;;;;;;3.13;1.40;;;29.20;85.30;;;;;;5131590;27;20474;-74
2023/08/13 10:36:49;;;;;;;3.53;2.07;;;28.40;85.70;;;;;;5131306;27;20467;-74
2023/08/13 10:39:36;;;;;;;3.70;1.57;;;28.30;89.20;;;;;;5132087;27;20493;-74
2023/08/13 10:42:04;;;;;;;2.70;1.50;;;28.30;88.20;;;;;;5139718;27;20914;-76
2023/08/13 10:44:40;;;;;;;3.73;1.47;;;28.00;88.50;;;;;;5131054;27;21027;-74
2023/08/13 10:47:07;;;;;;;3.73;1.37;;;27.90;90.00;;;;;;5141508;27;20438;-74
2023/08/13 10:49:36;;;;;;;4.03;1.60;;;27.90;90.00;;;;;;5130225;27;20490;-73
2023/08/13 10:52:04;;;;;;;4.77;1.80;;;28.00;89.30;;;;;;5143853;27;20919;-72
2023/08/13 10:54:33;;;;;;;3.20;1.40;;;27.50;89.10;;;;;;5151990;27;20458;-73
2023/08/13 10:57:01;;;;;;;2.70;1.20;;;27.20;89.20;;;;;;5139492;27;20478;-74
2023/08/13 10:59:30;;;;;;;3.03;1.60;;;26.90;90.10;;;;;;5142520;27;20487;-73
2023/08/13 11:02:14;;;;;;;2.60;1.20;;;26.40;90.90;;;;;;5130161;27;20955;-73
2023/08/13 11:04:43;;;;;;;8.33;1.83;;;26.00;91.60;;;;;;5127971;27;20462;-74
2023/08/13 11:07:10;;;;;;;5.10;2.37;;;25.80;92.00;;;;;;5128738;27;20937;-74
2023/08/13 11:09:38;;;;;;;4.37;1.70;;;25.50;92.80;;;;;;5127303;27;20517;-74
2023/08/13 11:12:06;;;;;;;3.40;1.43;;;25.50;92.90;;;;;;5135479;27;20545;-74
2023/08/13 11:14:33;;;;;;;1.90;1.10;;;25.40;92.60;;;;;;5115646;27;20554;-73
2023/08/13 11:17:01;;;;;;;3.10;1.63;;;25.30;92.80;;;;;;5129268;27;20873;-74
2023/08/13 11:19:29;;;;;;;3.30;1.20;;;25.60;93.00;;;;;;5125670;27;20982;-73
2023/08/13 11:21:57;;;;;;;3.30;1.27;;;25.80;93.00;;;;;;5123764;27;20848;-74
2023/08/13 11:24:24;;;;;;;5.10;1.57;;;25.80;93.00;;;;;;5129477;27;20466;-75
2023/08/13 11:26:53;;;;;;;2.17;1.27;;;26.20;92.90;;;;;;5134193;27;20443;-75
2023/08/13 11:29:20;;;;;;;3.67;1.30;;;26.40;92.60;;;;;;5121171;27;21027;-75
2023/08/13 11:31:48;;;;;;;3.30;1.70;;;26.20;92.10;;;;;;5124872;27;20458;-77
2023/08/13 11:34:16;;;;;;;2.83;1.20;;;26.00;92.70;;;;;;5128601;27;20539;-76
2023/08/13 11:36:47;;;;;;;4.80;1.90;;;26.00;92.20;;;;;;5115083;28;20443;-78
2023/08/13 11:39:14;;;;;;;3.40;1.57;;;25.90;93.00;;;;;;5116818;27;20434;-78
2023/08/13 11:41:41;;;;;;;1.83;1.47;;;25.60;92.90;;;;;;5134900;27;20441;-77
2023/08/13 11:44:11;;;;;;;5.80;1.57;;;25.40;93.30;;;;;;5129877;27;20519;-78
2023/08/13 11:46:54;;;;;;;3.13;1.20;;;25.60;93.40;;;;;;5133634;27;20908;-77
2023/08/13 11:49:23;;;;;;;3.17;1.30;;;25.90;93.40;;;;;;5118420;27;20482;-77
2023/08/13 11:51:52;;;;;;;6.60;4.30;;;26.00;92.60;;;;;;5124945;27;20514;-79
2023/08/13 11:54:20;;;;;;;14.17;12.07;;;26.30;92.60;;;;;;5128932;27;20465;-78
2023/08/13 11:56:51;;;;;;;4.43;1.60;;;26.50;92.70;;;;;;5128356;27;20446;-77
2023/08/13 11:59:25;;;;;;;3.20;1.30;;;26.60;92.20;;;;;;5132948;27;21009;-76
2023/08/13 12:01:58;;;;;;;2.73;1.57;;;26.60;91.50;;;;;;5130725;27;20841;-76
2023/08/13 12:04:30;;;;;;;3.80;1.10;;;26.80;91.90;;;;;;5123725;27;20481;-76
2023/08/13 12:06:58;;;;;;;2.83;1.10;;;27.00;90.50;;;;;;5120664;27;20521;-76
2023/08/13 12:09:25;;;;;;;2.90;1.10;;;27.10;90.60;;;;;;5134392;27;21020;-77
2023/08/13 12:11:54;;;;;;;3.40;1.47;;;27.10;90.70;;;;;;5124772;27;20542;-77
2023/08/13 12:14:21;;;;;;;4.20;1.50;;;27.00;91.10;;;;;;5128663;27;20543;-77
2023/08/13 12:16:48;;;;;;;3.33;1.00;;;26.80;91.10;;;;;;5129278;27;20539;-78
2023/08/13 12:19:14;;;;;;;4.47;1.77;;;26.70;91.10;;;;;;5119700;27;20510;-77
2023/08/13 12:21:41;;;;;;;3.10;1.10;;;26.70;91.40;;;;;;5130074;27;20439;-78
2023/08/13 12:24:10;;;;;;;2.50;1.03;;;26.70;90.90;;;;;;5131305;27;20512;-77
2023/08/13 12:26:38;;;;;;;4.27;1.50;;;26.90;90.50;;;;;;5119037;27;20853;-78
2023/08/13 12:29:05;;;;;;;1.83;1.10;;;26.70;90.20;;;;;;5121224;27;20562;-76
2023/08/13 12:31:32;;;;;;;3.90;1.23;;;26.60;90.40;;;;;;5123695;27;20485;-77
2023/08/13 12:34:01;;;;;;;4.53;1.40;;;26.60;91.10;;;;;;5128784;27;20509;-76
2023/08/13 12:36:28;;;;;;;5.80;2.00;;;26.80;91.30;;;;;;5130138;27;20807;-78
2023/08/13 12:38:55;;;;;;;2.20;1.30;;;26.70;91.20;;;;;;5124786;27;20434;-76
2023/08/13 12:41:24;;;;;;;2.57;1.40;;;26.70;90.70;;;;;;5120028;27;20518;-77
2023/08/13 12:43:51;;;;;;;1.97;1.23;;;26.50;90.70;;;;;;5116390;27;20900;-77
2023/08/13 12:46:18;;;;;;;4.13;0.90;;;26.10;91.00;;;;;;5121693;27;20443;-77
2023/08/13 12:48:45;;;;;;;4.00;1.73;;;26.20;91.70;;;;;;5122789;27;20507;-78